Latest Weather Observations for Launceston

IDT60801

Issued at 8:05 am EST Saturday 26 July 2014 (issued every 30 minutes, with the page automatically refreshed every 10 minutes)

About weather observations | Map of weather stations | Latest weather observations for TAS | Other Formats
Station Details ID: 091237 Name: LAUNCESTON (TI TREE BEND) Lat: -41.42 Lon: 147.12 Height: 5.0 m
Data from the previous 72 hours. | See also: Recent months at Launceston
Date/Time
EST
Temp
°C
App
Temp
°C
Dew
Point
Rel
Hum
%
Delta-T
°C
Wind Press
QNH
hPa
Press
MSL
hPa
Rain
since 9 am
mm
Dir
 
Spd
km/h
Gust
km/h
Spd
kts
Gust
kts
26/08:00am 6.1 4.7 5.7 97 0.2 ESE 2 4 1 2 - - 0.0
26/07:30am 6.0 5.0 5.6 97 0.2 WNW 0 0 0 0 - - 0.0
26/07:00am 5.9 4.9 5.5 97 0.2 CALM 0 0 0 0 - - 0.0
26/06:30am 6.1 4.3 5.5 96 0.3 NE 4 6 2 3 - - 0.0
26/06:00am 6.7 5.1 6.3 97 0.2 E 4 6 2 3 - - 0.0
26/05:30am 6.9 5.7 6.5 97 0.2 SSE 2 4 1 2 - - 0.0
26/05:00am 6.8 5.2 6.4 97 0.2 S 4 6 2 3 - - 0.0
26/04:30am 7.0 5.8 6.6 97 0.2 ESE 2 4 1 2 - - 0.0
26/04:00am 6.8 6.0 6.4 97 0.2 CALM 0 0 0 0 - - 0.0
26/03:30am 6.8 6.0 6.4 97 0.2 CALM 0 0 0 0 - - 0.0
26/03:00am 6.9 5.4 6.6 98 0.1 E 4 6 2 3 - - 0.0
26/02:30am 6.8 6.0 6.5 98 0.1 CALM 0 0 0 0 - - 0.0
26/02:00am 6.8 5.6 6.5 98 0.1 S 2 4 1 2 - - 0.0
26/01:30am 6.5 5.6 6.2 98 0.1 CALM 0 0 0 0 - - 0.0
26/01:00am 6.7 5.9 6.4 98 0.1 CALM 0 0 0 0 - - 0.0
26/12:30am 6.9 5.0 6.6 98 0.1 ENE 6 7 3 4 - - 0.0
26/12:00am 6.8 5.2 6.5 98 0.1 ESE 4 6 2 3 - - 0.0
 
Date/Time
EST
Temp
°C
App
Temp
°C
Dew
Point
Rel
Hum
%
Delta-T
°C
Wind Press
QNH
hPa
Press
MSL
hPa
Rain
since 9 am
mm
Dir
 
Spd
km/h
Gust
km/h
Spd
kts
Gust
kts
25/11:30pm 6.9 6.1 6.6 98 0.1 CALM 0 0 0 0 - - 0.0
25/11:00pm 7.5 6.5 7.2 98 0.1 SE 2 6 1 3 - - 0.0
25/10:30pm 7.4 6.7 7.1 98 0.1 CALM 0 0 0 0 - - 0.0
25/10:00pm 7.4 6.7 7.0 97 0.2 CALM 0 0 0 0 - - 0.0
25/09:30pm 8.0 7.5 7.7 98 0.1 CALM 0 0 0 0 - - 0.0
25/09:00pm 8.1 6.5 7.8 98 0.1 NNE 6 7 3 4 - - 0.0
25/08:30pm 7.5 6.4 7.1 97 0.2 WSW 2 4 1 2 - - 0.0
25/08:00pm 8.4 7.2 8.0 97 0.2 E 4 6 2 3 - - 0.0
25/07:30pm 8.7 7.9 8.1 96 0.3 ENE 2 4 1 2 - - 0.0
25/07:00pm 9.2 8.8 8.4 95 0.4 CALM 0 0 0 0 - - 0.0
25/06:30pm 10.2 10.1 9.4 95 0.4 CALM 0 0 0 0 - - 0.0
25/06:00pm 10.7 10.2 9.3 91 0.7 SE 2 4 1 2 - - 0.0
25/05:30pm 11.2 10.4 9.6 90 0.8 SSE 4 7 2 4 - - 0.0
25/05:00pm 11.1 11.1 9.7 91 0.7 CALM 0 0 0 0 - - 0.0
25/04:30pm 11.8 11.9 10.0 89 0.9 CALM 0 0 0 0 - - 0.0
25/04:00pm 11.9 11.6 10.0 88 1.0 NW 2 6 1 3 - - 0.0
25/03:30pm 11.9 10.7 9.6 86 1.2 N 6 7 3 4 - - 0.0
25/03:00pm 12.6 11.8 9.8 83 1.4 W 4 7 2 4 - - 0.0
25/02:30pm 12.4 12.0 9.6 83 1.4 NW 2 6 1 3 - - 0.0
25/02:00pm 12.7 11.8 9.3 80 1.7 NW 4 6 2 3 - - 0.0
25/01:30pm 13.8 13.3 9.3 74 2.3 NNE 2 6 1 3 - - 0.0
25/01:00pm 11.5 10.8 8.4 81 1.5 NW 2 4 1 2 - - 0.0
25/12:30pm 11.3 10.6 8.7 84 1.3 NNW 2 4 1 2 - - 0.0
25/12:00pm 10.4 9.7 8.7 89 0.8 N 2 4 1 2 - - 0.0
25/11:30am 9.6 8.6 7.4 86 1.0 WNW 2 6 1 3 - - 0.0
25/11:00am 8.5 7.4 7.0 90 0.7 NW 2 4 1 2 - - 0.0
25/10:30am 7.2 6.3 6.1 93 0.5 CALM 0 0 0 0 - - 0.0
25/10:00am 6.5 5.5 5.8 95 0.3 CALM 0 0 0 0 - - 0.0
25/09:30am 6.0 4.6 5.7 98 0.1 ENE 2 4 1 2 - - 0.0
25/09:00am 4.5 3.2 4.2 98 0.1 CALM 0 0 0 0 - - 0.0
25/08:30am 3.6 2.1 3.2 97 0.2 CALM 0 0 0 0 - - 0.0
25/08:00am 3.7 2.3 3.3 97 0.2 CALM 0 0 0 0 - - 0.0
25/07:30am 3.6 2.1 3.2 97 0.2 CALM 0 0 0 0 - - 0.0
25/07:00am 4.4 3.1 4.0 97 0.2 CALM 0 0 0 0 - - 0.0
25/06:30am 4.4 2.7 4.0 97 0.2 ENE 2 6 1 3 - - 0.0
25/06:00am 4.3 2.9 3.7 96 0.2 CALM 0 0 0 0 - - 0.0
25/05:30am 4.6 3.3 4.2 97 0.2 CALM 0 0 0 0 - - 0.0
25/05:00am 4.4 3.0 3.8 96 0.2 CALM 0 0 0 0 - - 0.0
25/04:30am 4.3 2.2 3.7 96 0.2 WNW 4 6 2 3 - - 0.0
25/04:00am 4.7 2.1 4.3 97 0.2 NNW 7 9 4 5 - - 0.0
25/03:30am 4.4 2.7 3.8 96 0.2 WNW 2 6 1 3 - - 0.0
25/03:00am 4.7 2.6 3.8 94 0.4 ENE 4 6 2 3 - - 0.0
25/02:30am 4.6 3.3 3.9 95 0.3 CALM 0 2 0 1 - - 0.0
25/02:00am 4.9 2.5 4.2 95 0.3 ESE 6 6 3 3 - - 0.0
25/01:30am 5.3 3.7 4.6 95 0.3 N 2 4 1 2 - - 0.0
25/01:00am 5.5 3.2 4.8 95 0.3 SSE 6 7 3 4 - - 0.0
25/12:30am 5.2 4.0 4.5 95 0.3 CALM 0 4 0 2 - - 0.0
25/12:00am 5.3 4.0 4.1 92 0.5 CALM 0 4 0 2 - - 0.0
 
Date/Time
EST
Temp
°C
App
Temp
°C
Dew
Point
Rel
Hum
%
Delta-T
°C
Wind Press
QNH
hPa
Press
MSL
hPa
Rain
since 9 am
mm
Dir
 
Spd
km/h
Gust
km/h
Spd
kts
Gust
kts
24/11:30pm 5.5 3.8 4.2 91 0.6 WNW 2 4 1 2 - - 0.0
24/11:00pm 6.1 4.5 4.6 90 0.6 SE 2 4 1 2 - - 0.0
24/10:30pm 6.1 4.6 4.9 92 0.5 WSW 2 4 1 2 - - 0.0
24/10:00pm 6.8 5.7 5.0 88 0.8 CALM 0 4 0 2 - - 0.0
24/09:30pm 7.0 5.5 5.2 88 0.8 E 2 4 1 2 - - 0.0
24/09:00pm 7.4 5.2 5.2 86 1.0 ESE 6 9 3 5 - - 0.0
24/08:30pm 7.6 4.9 5.4 86 1.0 ESE 9 15 5 8 - - 0.0
24/08:00pm 7.7 5.6 5.8 88 0.9 ESE 6 7 3 4 - - 0.0
24/07:30pm 7.8 5.5 5.9 88 0.9 ESE 7 11 4 6 - - 0.0
24/07:00pm 8.2 5.9 5.8 85 1.1 SE 7 11 4 6 - - 0.0
24/06:30pm 8.4 6.4 6.2 86 1.0 SE 6 9 3 5 - - 0.0
24/06:00pm 9.3 7.2 6.6 83 1.3 SE 7 9 4 5 - - 0.0
24/05:30pm 10.0 8.1 6.9 81 1.5 SE 6 7 3 4 - - 0.0
24/05:00pm 10.8 8.8 6.9 77 1.8 SSE 7 9 4 5 - - 0.0
24/04:30pm 11.8 9.0 7.1 73 2.3 SSE 11 15 6 8 - - 0.0
24/04:00pm 12.5 9.7 7.0 69 2.6 SSE 11 19 6 10 - - 0.0
24/03:30pm 12.9 10.2 7.4 69 2.7 S 11 15 6 8 - - 0.0
24/03:00pm 12.6 10.6 6.9 68 2.7 S 7 13 4 7 - - 0.0
24/02:30pm 12.6 10.6 6.9 68 2.7 SSE 7 11 4 6 - - 0.0
24/02:00pm 12.2 10.1 6.7 69 2.6 SE 7 11 4 6 - - 0.0
24/01:30pm 11.9 9.8 6.6 70 2.5 ESE 7 9 4 5 - - 0.0
24/01:00pm 11.8 9.9 6.9 72 2.3 SE 6 9 3 5 - - 0.0
24/12:30pm 11.2 9.5 5.9 70 2.5 S 4 6 2 3 - - 0.0
24/12:00pm 10.9 8.5 5.4 69 2.5 SE 7 9 4 5 - - 0.0
24/11:30am 10.3 7.5 5.1 70 2.4 SSE 9 13 5 7 - - 0.0
24/11:00am 8.7 7.3 5.4 80 1.5 ENE 2 4 1 2 - - 0.0
24/10:30am 7.6 6.4 4.7 82 1.3 CALM 0 2 0 1 - - 0.0
24/10:00am 6.0 3.9 3.8 86 0.9 E 4 4 2 2 - - 0.0
24/09:30am 4.4 2.5 3.1 91 0.5 ESE 2 4 1 2 - - 0.0
24/09:00am 3.4 1.5 2.7 95 0.3 E 2 4 1 2 - - 0.0
24/08:30am 2.1 0.3 1.5 96 0.2 CALM 0 0 0 0 - - 0.0
24/08:00am 2.0 -0.1 1.4 96 0.2 ESE 2 2 1 1 - - 0.0
24/07:30am 2.1 0.3 1.5 96 0.2 CALM 0 4 0 2 - - 0.0
24/07:00am 2.4 0.7 1.8 96 0.2 CALM 0 0 0 0 - - 0.0
24/06:30am 2.8 0.4 2.2 96 0.2 SW 4 6 2 3 - - 0.0
24/06:00am 3.0 0.7 2.6 97 0.2 ESE 4 6 2 3 - - 0.0
24/05:30am 2.7 1.1 2.3 97 0.2 CALM 0 0 0 0 - - 0.0
24/05:00am 2.3 0.2 1.9 97 0.2 SSW 2 4 1 2 - - 0.0
24/04:30am 2.4 0.3 2.0 97 0.2 ESE 2 4 1 2 - - 0.0
24/04:00am 2.2 0.5 1.8 97 0.2 CALM 0 0 0 0 - - 0.0
24/03:30am 2.1 0.4 1.7 97 0.2 CALM 0 0 0 0 - - 0.0
24/03:00am 2.2 -0.3 1.8 97 0.2 ESE 4 6 2 3 - - 0.0
24/02:30am 2.2 -0.2 1.9 98 0.1 E 4 6 2 3 - - 0.0
24/02:00am 1.9 -0.2 1.6 98 0.1 SE 2 4 1 2 - - 0.0
24/01:30am 1.4 -0.4 1.1 98 0.1 CALM 0 0 0 0 - - 0.0
24/01:00am 0.6 -1.7 0.3 98 0.1 E 2 4 1 2 - - 0.0
24/12:30am 1.3 -0.9 1.0 98 0.1 E 2 4 1 2 - - 0.0
24/12:00am 1.0 -1.3 0.6 97 0.1 ESE 2 6 1 3 - - 0.0
 
Date/Time
EST
Temp
°C
App
Temp
°C
Dew
Point
Rel
Hum
%
Delta-T
°C
Wind Press
QNH
hPa
Press
MSL
hPa
Rain
since 9 am
mm
Dir
 
Spd
km/h
Gust
km/h
Spd
kts
Gust
kts
23/11:30pm 1.2 -1.4 0.8 97 0.1 S 4 6 2 3 - - 0.0
23/11:00pm 1.5 -0.3 1.1 97 0.2 CALM 0 0 0 0 - - 0.0
23/10:30pm 2.0 0.3 1.6 97 0.2 CALM 0 0 0 0 - - 0.0
23/10:00pm 2.6 1.0 2.2 97 0.2 CALM 0 0 0 0 - - 0.0
23/09:30pm 3.0 1.4 2.4 96 0.2 CALM 0 0 0 0 - - 0.0
23/09:00pm 3.4 1.9 2.8 96 0.2 CALM 0 0 0 0 - - 0.0
23/08:30pm 3.8 2.3 3.1 95 0.3 CALM 0 0 0 0 - - 0.0
23/08:00pm 4.4 3.0 3.5 94 0.4 CALM 0 0 0 0 - - 0.0
23/07:30pm 5.5 3.9 4.6 94 0.4 WSW 2 2 1 1 - - 0.0
23/07:00pm 5.5 3.4 3.8 89 0.7 ENE 4 4 2 2 - - 0.0
23/06:30pm 7.2 5.7 4.9 85 1.0 W 2 6 1 3 - - 0.0
23/06:00pm 8.5 6.9 6.3 86 1.0 N 4 7 2 4 - - 0.0
23/05:30pm 9.4 8.6 6.3 81 1.4 CALM 0 0 0 0 - - 0.0
23/05:00pm 10.2 8.3 5.0 70 2.3 W 4 6 2 3 - - 0.0
23/04:30pm 12.7 11.3 5.4 61 3.4 NW 2 4 1 2 - - 0.0
23/04:00pm 13.3 11.6 5.7 60 3.6 N 4 6 2 3 - - 0.0
23/03:30pm 14.3 13.0 6.2 58 3.9 N 2 4 1 2 - - 0.0
23/03:00pm 14.7 14.0 6.8 59 3.8 CALM 0 4 0 2 - - 0.0
23/02:30pm 13.6 12.0 6.5 62 3.4 NE 4 6 2 3 - - 0.0
23/02:00pm 12.5 10.3 6.1 65 3.0 ENE 7 9 4 5 - - 0.0
23/01:30pm 12.3 10.4 6.8 69 2.6 E 6 9 3 5 - - 0.0
23/01:00pm 11.2 9.4 5.3 67 2.7 ENE 4 7 2 4 - - 0.0
23/12:30pm 10.4 8.7 5.8 73 2.1 E 4 7 2 4 - - 0.0
23/12:00pm 9.4 7.6 5.2 75 1.9 E 4 7 2 4 - - 0.0
23/11:30am 8.6 7.0 4.4 75 1.8 ESE 2 6 1 3 - - 0.0
23/11:00am 6.8 4.9 3.1 77 1.5 ENE 2 6 1 3 - - 0.0
23/10:30am 6.1 4.6 2.9 80 1.3 CALM 0 0 0 0 - - 0.0
23/10:00am 4.9 3.4 2.9 87 0.8 CALM 0 4 0 2 - - 0.0
23/09:30am 2.6 0.1 1.6 93 0.4 E 4 6 2 3 - - 0.0
23/09:00am 1.4 -1.2 1.0 97 0.1 E 4 6 2 3 - - 0.0
23/08:30am 0.7 -1.6 0.6 99 0.0 ESE 2 4 1 2 - - 0.0

Other Formats:

Comma delimited format used in spreadsheet applications
http://www.bom.gov.au/fwo/IDT60801/IDT60801.94969.axf

JavaScript Object Notation format (JSON) in row-major order
http://www.bom.gov.au/fwo/IDT60801/IDT60801.94969.json